Time;durP1;ratioP1;P1;durP2;ratioP2;P2;SDS_P1;SDS_P2;PMS_P1;PMS_P2;Temp;Humidity;BMP_temperature;BMP_pressure;BME280_temperature;BME280_humidity;BME280_pressure;Samples;Min_cycle;Max_cycle;Signal;HPM_P1;HPM_P2
2022/07/06 00:00:25;;;;;;;6.45;2.10;;;13.70;99.90;;;;;;6157146;23;20462;-92
2022/07/06 00:03:06;;;;;;;;;;;13.10;99.90;;;;;;6158766;23;20345;-92
2022/07/06 00:05:38;;;;;;;10.02;2.15;;;13.10;99.90;;;;;;6158932;23;19912;-92
2022/07/06 00:08:22;;;;;;;9.05;2.47;;;13.00;99.90;;;;;;6184358;23;20019;-91
2022/07/06 00:10:58;;;;;;;9.25;2.30;;;14.30;99.90;;;;;;6157898;23;20461;-92
2022/07/06 00:13:45;;;;;;;8.48;2.30;;;12.90;99.90;;;;;;6186749;23;20072;-92
2022/07/06 00:16:11;;;;;;;7.28;2.35;;;13.10;99.90;;;;;;6191898;23;20092;-92
2022/07/06 00:18:37;;;;;;;9.60;2.40;;;13.10;99.90;;;;;;6187886;23;20036;-92
2022/07/06 00:21:06;;;;;;;7.80;2.13;;;13.70;99.90;;;;;;6178643;23;20022;-90
2022/07/06 00:23:57;;;;;;;8.35;2.60;;;13.10;99.90;;;;;;6170714;23;20100;-91
2022/07/06 00:26:28;;;;;;;8.23;2.40;;;13.20;99.90;;;;;;6167623;23;20017;-91
2022/07/06 00:29:24;;;;;;;9.20;2.25;;;13.20;99.90;;;;;;6153797;23;20093;-91
2022/07/06 00:32:05;;;;;;;7.47;2.03;;;13.70;99.90;;;;;;6153600;23;20021;-91
2022/07/06 00:34:35;;;;;;;9.32;2.55;;;13.20;99.90;;;;;;6102600;23;20017;-91
2022/07/06 00:37:25;;;;;;;9.98;2.53;;;13.00;99.90;;;;;;6152504;23;20458;-91
2022/07/06 00:39:51;;;;;;;7.20;2.33;;;13.20;99.90;;;;;;6153290;23;20029;-91
2022/07/06 00:42:56;;;;;;;8.07;2.38;;;14.10;99.90;;;;;;6153292;23;20012;-91
2022/07/06 00:45:34;;;;;;;10.32;2.50;;;12.80;99.90;;;;;;6035734;23;20027;-90
2022/07/06 00:48:27;;;;;;;9.63;2.30;;;13.30;99.90;;;;;;6036032;23;20496;-90
2022/07/06 00:51:30;;;;;;;7.55;2.10;;;13.00;99.90;;;;;;6036127;23;20022;-90
2022/07/06 00:54:05;;;;;;;9.18;2.20;;;12.50;99.90;;;;;;6036003;23;20016;-92
2022/07/06 00:56:46;;;;;;;8.00;2.15;;;13.00;99.90;;;;;;6012125;23;20028;-91
2022/07/06 00:59:11;;;;;;;6.95;2.45;;;12.50;99.90;;;;;;6058669;23;20029;-91
2022/07/06 01:02:23;;;;;;;;;;;;;;;;;;;;;
2022/07/06 01:07:56;;;;;;;7.72;2.40;;;13.30;99.90;;;;;;6158754;23;20044;-91
2022/07/06 01:11:11;;;;;;;8.18;2.55;;;13.20;99.90;;;;;;6128601;23;20443;-90
2022/07/06 01:13:43;;;;;;;10.90;2.42;;;13.20;99.90;;;;;;6155108;23;20037;-90
2022/07/06 01:16:10;;;;;;;7.45;2.20;;;13.20;99.90;;;;;;6156616;23;20056;-90
2022/07/06 01:18:36;;;;;;;9.70;2.63;;;14.30;99.90;;;;;;6161258;23;20434;-91
2022/07/06 01:21:23;;;;;;;8.07;2.38;;;13.10;99.90;;;;;;6185989;23;20152;-91
2022/07/06 01:23:52;;;;;;;12.00;2.30;;;12.70;99.90;;;;;;6159533;23;20025;-90
2022/07/06 01:26:34;;;;;;;8.10;2.40;;;13.60;99.90;;;;;;6159595;23;20084;-90
2022/07/06 01:29:59;;;;;;;9.13;2.33;;;12.90;99.90;;;;;;6169079;23;20021;-90
2022/07/06 01:36:05;;;;;;;7.68;2.45;;;12.70;99.90;;;;;;6187143;23;20060;-89
2022/07/06 01:39:21;;;;;;;8.73;2.40;;;13.40;99.90;;;;;;6160264;23;20025;-91
2022/07/06 01:41:50;;;;;;;8.63;2.42;;;13.00;99.90;;;;;;6160207;23;20385;-90
2022/07/06 01:44:16;;;;;;;8.63;2.70;;;12.40;99.90;;;;;;6187188;23;20032;-91
2022/07/06 01:46:57;;;;;;;10.80;2.67;;;14.40;99.90;;;;;;6159026;23;20029;-90
2022/07/06 01:49:38;;;;;;;9.95;2.33;;;12.80;99.90;;;;;;6186457;23;20028;-90
2022/07/06 01:52:10;;;;;;;9.88;2.40;;;13.80;99.90;;;;;;6185901;23;20088;-90
2022/07/06 01:54:55;;;;;;;;;;;;;;;;;;;;;
2022/07/06 01:57:36;;;;;;;9.70;2.63;;;14.30;99.90;;;;;;6095439;23;20515;-91
2022/07/06 02:00:25;;;;;;;8.65;2.50;;;14.40;99.90;;;;;;6070495;23;20018;-91
2022/07/06 02:03:03;;;;;;;8.23;2.63;;;13.20;99.90;;;;;;6185020;23;20091;-91
2022/07/06 02:05:47;;;;;;;8.77;2.38;;;13.20;99.90;;;;;;6159479;23;20096;-90
2022/07/06 02:08:22;;;;;;;8.02;2.38;;;14.20;99.90;;;;;;6159673;23;20096;-90
2022/07/06 02:11:10;;;;;;;8.57;2.97;;;13.00;99.90;;;;;;6159761;23;20513;-90
2022/07/06 02:13:39;;;;;;;10.20;2.60;;;12.80;99.90;;;;;;6176582;23;20052;-90
2022/07/06 02:16:25;;;;;;;8.73;2.70;;;12.90;99.90;;;;;;6185647;23;20017;-91
2022/07/06 02:19:43;;;;;;;8.82;3.10;;;14.20;99.90;;;;;;6177134;23;20076;-91
2022/07/06 02:22:15;;;;;;;7.95;2.42;;;13.10;99.90;;;;;;6187412;23;20021;-89
2022/07/06 02:24:41;;;;;;;8.23;2.60;;;13.00;99.90;;;;;;6159397;23;20084;-90
2022/07/06 02:27:11;;;;;;;9.73;2.72;;;13.30;99.90;;;;;;6158465;23;20040;-91
2022/07/06 02:29:57;;;;;;;8.20;2.53;;;13.80;99.90;;;;;;6180880;23;20036;-92
2022/07/06 02:32:38;;;;;;;11.05;2.60;;;14.10;99.90;;;;;;6189554;23;20013;-91
2022/07/06 02:35:10;;;;;;;10.27;2.88;;;13.10;99.90;;;;;;6185792;23;20056;-91
2022/07/06 02:37:45;;;;;;;7.93;2.50;;;13.50;99.90;;;;;;6166187;23;20021;-91
2022/07/06 02:40:11;;;;;;;8.90;2.50;;;13.60;99.90;;;;;;6182309;23;20017;-90
2022/07/06 02:42:52;;;;;;;9.07;2.67;;;13.10;99.90;;;;;;6159439;23;20040;-90
2022/07/06 02:45:36;;;;;;;8.10;2.60;;;13.00;99.90;;;;;;6159319;23;20023;-90
2022/07/06 02:48:23;;;;;;;;;;;13.10;99.90;;;;;;6159636;23;20013;-91
2022/07/06 02:51:08;;;;;;;8.15;2.13;;;13.10;99.90;;;;;;6159035;23;19922;-90
2022/07/06 02:54:14;;;;;;;8.65;2.55;;;13.00;99.90;;;;;;6038034;23;20070;-88
2022/07/06 02:56:58;;;;;;;7.68;2.10;;;13.10;99.90;;;;;;6068233;23;20492;-88
2022/07/06 03:00:04;;;;;;;8.38;2.10;;;12.90;99.90;;;;;;6159133;23;20013;-89
2022/07/06 03:02:45;;;;;;;6.93;2.20;;;13.00;99.90;;;;;;6159167;23;20460;-90
2022/07/06 03:05:36;;;;;;;8.23;2.13;;;12.20;99.90;;;;;;6163361;23;20067;-90
2022/07/06 03:08:20;;;;;;;8.10;2.03;;;13.00;99.90;;;;;;6185651;23;20445;-89
2022/07/06 03:11:00;;;;;;;;;;;14.00;99.90;;;;;;6185770;23;20017;-90
2022/07/06 03:13:38;;;;;;;9.77;2.40;;;13.10;99.90;;;;;;6163645;23;19916;-90
2022/07/06 03:16:22;;;;;;;8.65;2.10;;;12.90;99.90;;;;;;6160613;23;20028;-90
2022/07/06 03:41:50;;;;;;;9.18;1.90;;;13.10;99.90;;;;;;6158269;23;20021;-89
2022/07/06 03:44:21;;;;;;;9.38;2.40;;;14.00;99.90;;;;;;6185019;23;20453;-90
2022/07/06 03:47:06;;;;;;;6.57;2.30;;;13.90;99.90;;;;;;6158397;23;20024;-89
2022/07/06 03:49:51;;;;;;;8.10;2.63;;;13.20;99.90;;;;;;6185533;23;20441;-90
2022/07/06 03:52:17;;;;;;;8.40;2.28;;;13.20;99.90;;;;;;6159169;23;20032;-90
2022/07/06 03:58:29;;;;;;;8.88;2.40;;;13.30;99.90;;;;;;6158524;23;20017;-89
2022/07/06 04:00:59;;;;;;;6.78;2.10;;;13.10;99.90;;;;;;6158069;23;20016;-90
2022/07/06 04:03:30;;;;;;;9.88;2.42;;;12.90;99.90;;;;;;6158317;23;20013;-90
2022/07/06 04:06:05;;;;;;;9.88;2.45;;;13.20;99.90;;;;;;6184217;23;20358;-90
2022/07/06 04:08:46;;;;;;;9.75;2.28;;;13.20;99.90;;;;;;6157401;23;20040;-90
2022/07/06 04:19:35;;;;;;;6.70;2.22;;;13.40;99.90;;;;;;6157576;23;20465;-90
2022/07/06 04:22:03;;;;;;;15.80;2.60;;;13.40;99.90;;;;;;6184587;23;20021;-89
2022/07/06 04:24:32;;;;;;;8.40;2.42;;;14.30;99.90;;;;;;6184858;23;20028;-90
2022/07/06 04:27:13;;;;;;;7.97;2.33;;;13.10;99.90;;;;;;6184596;23;20333;-89
2022/07/06 04:29:41;;;;;;;9.70;2.47;;;13.10;99.90;;;;;;6185001;23;20017;-90
2022/07/06 04:32:13;;;;;;;10.68;2.70;;;13.40;99.90;;;;;;6184172;23;20029;-89
2022/07/06 04:38:49;;;;;;;8.15;2.40;;;13.50;99.90;;;;;;6189294;23;20036;-90
2022/07/06 04:41:31;;;;;;;8.35;2.40;;;13.50;99.90;;;;;;6184478;23;20516;-90
2022/07/06 04:44:15;;;;;;;9.85;2.78;;;14.10;99.90;;;;;;6157654;23;20019;-90
2022/07/06 04:55:08;;;;;;;8.80;2.13;;;13.70;99.90;;;;;;6159721;23;20099;-91
2022/07/06 04:57:44;;;;;;;8.82;2.40;;;13.80;99.90;;;;;;6175185;23;20032;-90
2022/07/06 05:03:41;;;;;;;8.48;2.10;;;13.90;99.90;;;;;;6127698;23;20026;-89
2022/07/06 05:07:03;;;;;;;8.48;2.33;;;14.20;99.90;;;;;;6134715;23;20012;-89
2022/07/06 05:10:37;;;;;;;6.22;2.00;;;13.50;99.90;;;;;;6191543;23;20446;-90
2022/07/06 05:14:11;;;;;;;7.75;2.25;;;14.40;99.90;;;;;;6186482;23;20021;-89
2022/07/06 05:17:40;;;;;;;6.32;1.98;;;14.10;99.90;;;;;;6160466;23;20021;-89
2022/07/06 05:24:04;;;;;;;;;;;13.90;99.90;;;;;;6186966;23;20025;-89
2022/07/06 05:26:35;;;;;;;10.93;2.25;;;14.00;99.90;;;;;;6015485;23;19956;-89
2022/07/06 05:29:45;;;;;;;9.45;2.00;;;15.00;99.90;;;;;;6013445;23;20112;-89
2022/07/06 05:32:26;;;;;;;5.40;1.80;;;14.20;99.90;;;;;;6110961;23;20025;31
2022/07/06 05:38:35;;;;;;;11.98;2.20;;;14.30;99.90;;;;;;6186926;23;20029;-90
2022/07/06 05:41:55;;;;;;;10.55;2.15;;;14.40;99.90;;;;;;6159542;23;20017;-89
2022/07/06 05:52:06;;;;;;;5.60;1.50;;;14.60;99.90;;;;;;6183917;23;20033;-90
2022/07/06 06:05:40;;;;;;;;;;;;;;;;;;;;;
2022/07/06 06:08:46;;;;;;;5.65;1.40;;;15.30;99.90;;;;;;6042933;23;20067;-95
2022/07/06 06:11:11;;;;;;;6.28;1.50;;;15.20;99.90;;;;;;6043954;23;20031;-95
2022/07/06 07:09:01;;;;;;;5.90;1.30;;;15.90;99.90;;;;;;6035994;23;20051;-90
2022/07/06 07:14:06;;;;;;;8.38;2.20;;;15.80;99.90;;;;;;6180665;23;20072;-90
2022/07/06 07:21:24;;;;;;;6.38;1.85;;;15.30;99.90;;;;;;6174323;23;20107;-95
2022/07/06 07:24:48;;;;;;;4.10;1.30;;;15.90;99.90;;;;;;6159416;23;20472;-94
2022/07/06 07:27:20;;;;;;;9.57;1.88;;;15.80;99.90;;;;;;6163966;23;20469;-93
2022/07/06 07:30:20;;;;;;;3.92;1.20;;;16.70;99.90;;;;;;6066608;23;20026;-94
2022/07/06 07:33:13;;;;;;;7.88;1.48;;;17.00;99.90;;;;;;6066939;23;20487;-93
2022/07/06 07:35:41;;;;;;;6.90;1.40;;;16.30;99.90;;;;;;6079199;23;20007;-91
2022/07/06 07:58:11;;;;;;;;;;;;;;;;;;;;;
2022/07/06 09:15:10;;;;;;;;;;;;;;;;;;;;;
2022/07/06 09:18:45;;;;;;;10.27;1.58;;;17.40;99.90;;;;;;5999006;23;20027;-90
2022/07/06 09:25:23;;;;;;;4.70;1.15;;;17.80;99.90;;;;;;6159583;23;20032;-89
2022/07/06 09:54:50;;;;;;;6.97;1.30;;;19.00;99.90;;;;;;6070272;23;20026;-91
2022/07/06 09:57:55;;;;;;;4.47;1.30;;;19.50;99.90;;;;;;6096949;23;20023;-93
2022/07/06 10:20:11;;;;;;;2.92;1.27;;;19.90;99.90;;;;;;6036315;23;20448;-91
2022/07/06 10:23:11;;;;;;;2.58;1.00;;;20.40;99.90;;;;;;6185589;23;20029;-92
2022/07/06 10:48:48;;;;;;;3.10;1.10;;;20.10;99.90;;;;;;6160667;23;20021;-92
2022/07/06 11:06:39;;;;;;;3.83;0.98;;;20.70;97.10;;;;;;6170916;23;20048;-92
2022/07/06 11:32:52;;;;;;;3.03;1.05;;;21.20;96.20;;;;;;6161095;23;20461;-90
2022/07/06 11:36:24;;;;;;;5.38;1.33;;;21.10;96.30;;;;;;6129386;23;20025;-91
2022/07/06 11:43:13;;;;;;;4.22;1.00;;;21.00;97.10;;;;;;6153204;23;20541;-90
2022/07/06 11:56:59;;;;;;;;;;;;;;;;;;;;;
2022/07/06 12:06:31;;;;;;;4.70;1.40;;;21.20;97.60;;;;;;6159834;23;20028;-90
2022/07/06 15:28:50;;;;;;;5.18;1.60;;;19.20;97.90;;;;;;6154564;23;20053;-87
2022/07/06 15:31:25;;;;;;;6.20;1.50;;;19.50;98.10;;;;;;6139455;23;20096;-88
2022/07/06 15:59:07;;;;;;;7.32;2.13;;;19.10;99.20;;;;;;6146324;23;20025;-91
2022/07/06 16:36:30;;;;;;;;;;;;;;;;;;;;;
2022/07/06 16:44:03;;;;;;;6.15;2.00;;;18.50;99.90;;;;;;6160763;23;20020;-92
2022/07/06 17:18:07;;;;;;;9.73;2.42;;;16.30;99.90;;;;;;6176265;23;20078;-91
2022/07/06 17:20:35;;;;;;;7.53;2.28;;;16.80;99.90;;;;;;6181914;23;20013;-91
2022/07/06 17:31:04;;;;;;;7.22;2.70;;;16.40;99.90;;;;;;5980685;24;20105;-90
2022/07/06 17:33:36;;;;;;;11.15;3.25;;;16.20;99.90;;;;;;5957729;24;20016;-91
2022/07/06 17:36:25;;;;;;;9.23;3.17;;;16.70;99.90;;;;;;5909881;23;20092;-91
2022/07/06 17:39:46;;;;;;;8.88;3.00;;;16.10;99.90;;;;;;6057699;23;20073;-91
2022/07/06 17:43:20;;;;;;;9.18;3.20;;;16.10;99.90;;;;;;6071017;23;20038;-91
2022/07/06 17:49:32;;;;;;;9.30;3.13;;;15.90;99.90;;;;;;6095402;23;20101;-94
2022/07/06 17:52:15;;;;;;;9.57;3.40;;;15.60;99.90;;;;;;6094606;23;20019;-94
2022/07/06 17:54:50;;;;;;;12.65;3.65;;;17.00;99.90;;;;;;6102181;23;20018;-92
2022/07/06 17:57:19;;;;;;;8.40;3.42;;;15.80;99.90;;;;;;6186733;23;20437;-96
2022/07/06 18:00:21;;;;;;;9.00;3.63;;;15.80;99.90;;;;;;6189017;23;20159;-95
2022/07/06 18:03:03;;;;;;;8.32;3.63;;;15.80;99.90;;;;;;6190566;23;20029;-94
2022/07/06 18:06:03;;;;;;;10.30;4.22;;;16.60;99.90;;;;;;6186781;23;20043;-95
2022/07/06 18:08:42;;;;;;;9.40;4.00;;;16.00;99.90;;;;;;6187260;23;20089;-95
2022/07/06 18:11:11;;;;;;;9.98;4.03;;;16.50;99.90;;;;;;6186899;23;20017;-92
2022/07/06 18:14:01;;;;;;;10.63;4.07;;;15.80;99.90;;;;;;6160584;23;20021;-92
2022/07/06 18:16:56;;;;;;;10.55;4.05;;;15.60;99.90;;;;;;6162736;23;20021;-92
2022/07/06 18:19:40;;;;;;;9.00;3.50;;;16.80;99.90;;;;;;6167320;23;20024;-91
2022/07/06 18:22:10;;;;;;;10.05;4.10;;;15.50;99.90;;;;;;6195615;23;20017;-92
2022/07/06 18:25:28;;;;;;;9.80;3.65;;;15.90;99.90;;;;;;6190969;23;20021;-91
2022/07/06 18:48:32;;;;;;;9.35;3.80;;;15.40;99.90;;;;;;6162140;23;20056;-93
2022/07/06 18:51:04;;;;;;;11.25;4.00;;;15.00;99.90;;;;;;6133287;23;20018;-93
2022/07/06 18:53:39;;;;;;;13.10;4.43;;;15.40;99.90;;;;;;6131184;23;20456;-92
2022/07/06 18:56:17;;;;;;;10.32;4.78;;;14.90;99.90;;;;;;6129515;23;20021;-92
2022/07/06 18:58:55;;;;;;;10.70;4.53;;;15.90;99.90;;;;;;6130321;23;20029;-91
2022/07/06 19:01:31;;;;;;;10.50;4.53;;;15.90;99.90;;;;;;6129461;23;20017;-91
2022/07/06 19:03:59;;;;;;;12.02;4.95;;;14.90;99.90;;;;;;6156399;23;20017;-91
2022/07/06 19:06:38;;;;;;;12.75;5.10;;;15.90;99.90;;;;;;6129747;23;20021;-92
2022/07/06 19:09:21;;;;;;;13.30;5.45;;;15.10;99.90;;;;;;6129724;23;20045;-91
2022/07/06 19:12:03;;;;;;;;;;;15.30;99.90;;;;;;6129341;23;20022;-91
2022/07/06 19:14:38;;;;;;;11.25;5.00;;;14.80;99.90;;;;;;6129874;23;19916;-93
2022/07/06 19:17:12;;;;;;;11.75;5.82;;;15.30;99.90;;;;;;6154824;23;20453;-93
2022/07/06 19:19:58;;;;;;;13.88;5.78;;;14.40;99.90;;;;;;6156232;23;20426;-92
2022/07/06 19:22:24;;;;;;;11.88;5.72;;;14.50;99.90;;;;;;6155087;23;20512;-93
2022/07/06 19:28:38;;;;;;;13.15;6.25;;;14.80;99.90;;;;;;6066636;23;20348;-93
2022/07/06 19:31:18;;;;;;;14.07;6.22;;;15.10;99.90;;;;;;6041585;23;20023;-93
2022/07/06 19:33:49;;;;;;;11.25;6.20;;;14.80;99.90;;;;;;6142487;23;20009;-93
2022/07/06 19:47:35;;;;;;;14.52;7.03;;;14.80;99.90;;;;;;6065332;23;20074;-91
2022/07/06 19:50:46;;;;;;;14.13;7.07;;;14.70;99.90;;;;;;6042457;23;20026;-93
2022/07/06 19:54:23;;;;;;;14.90;7.72;;;14.80;99.90;;;;;;6067403;23;20075;-94
2022/07/06 19:57:19;;;;;;;15.07;8.10;;;14.80;99.90;;;;;;6048376;23;20047;-93
2022/07/06 19:59:45;;;;;;;15.65;8.63;;;14.80;99.90;;;;;;6091994;23;20030;-93
2022/07/06 20:02:49;;;;;;;;;;;;;;;;;;;;;
2022/07/06 20:06:14;;;;;;;17.13;8.77;;;14.50;99.90;;;;;;6010854;23;20090;-93
2022/07/06 20:08:43;;;;;;;16.42;9.13;;;14.90;99.90;;;;;;6042123;23;20456;-93
2022/07/06 20:11:48;;;;;;;13.95;8.32;;;14.90;99.90;;;;;;6065604;23;20086;-92
2022/07/06 20:14:37;;;;;;;15.73;8.55;;;14.30;99.90;;;;;;6064144;23;20019;-90
2022/07/06 20:17:18;;;;;;;17.70;8.90;;;14.70;99.90;;;;;;6040852;23;20055;-93
2022/07/06 20:19:55;;;;;;;16.00;9.38;;;14.90;99.90;;;;;;6040746;23;20022;-91
2022/07/06 20:22:31;;;;;;;;;;;;;;;;;;;;;
2022/07/06 20:25:19;;;;;;;14.85;8.70;;;15.00;99.90;;;;;;5992882;23;20023;-93
2022/07/06 21:20:38;;;;;;;20.77;11.32;;;15.00;99.90;;;;;;6183510;23;20021;-86
2022/07/06 21:41:50;;;;;;;24.50;13.10;;;15.20;99.90;;;;;;6186634;23;20056;-88
2022/07/06 21:44:15;;;;;;;20.98;12.18;;;15.30;99.90;;;;;;6159703;23;20024;-90
2022/07/06 21:46:56;;;;;;;20.83;12.45;;;15.20;99.90;;;;;;6134324;23;20024;-90
2022/07/06 21:49:22;;;;;;;21.80;12.75;;;16.20;99.90;;;;;;6161015;23;20441;-89
2022/07/06 21:51:50;;;;;;;23.00;12.73;;;15.30;99.90;;;;;;6185262;23;20013;-89
2022/07/06 21:54:40;;;;;;;20.50;11.90;;;16.10;99.90;;;;;;6160073;23;20020;-90
2022/07/06 22:00:44;;;;;;;20.90;12.57;;;15.40;99.90;;;;;;6184149;23;20467;-88
2022/07/06 22:06:42;;;;;;;22.50;12.23;;;15.40;99.90;;;;;;6183120;23;20033;-87
2022/07/06 22:14:01;;;;;;;22.30;11.73;;;15.40;99.90;;;;;;6135069;23;20332;-88
2022/07/06 22:17:18;;;;;;;22.73;12.13;;;15.10;99.90;;;;;;6086386;23;20465;-87
2022/07/06 22:19:44;;;;;;;22.60;12.10;;;15.20;99.90;;;;;;6186889;23;20021;-88
2022/07/06 22:22:17;;;;;;;19.90;11.98;;;15.40;99.90;;;;;;6159983;23;20099;-88
2022/07/06 22:24:57;;;;;;;23.67;11.57;;;15.40;99.90;;;;;;6186086;23;20441;-88
2022/07/06 22:27:23;;;;;;;20.48;11.18;;;15.40;99.90;;;;;;6160536;23;20021;-87
2022/07/06 22:30:05;;;;;;;19.95;10.68;;;15.40;99.90;;;;;;6159640;23;20091;-88
2022/07/06 22:32:49;;;;;;;19.75;10.35;;;15.40;99.90;;;;;;6185462;23;20027;-88
2022/07/06 22:35:36;;;;;;;17.92;10.43;;;15.40;99.90;;;;;;6159442;23;20059;-88
2022/07/06 22:38:22;;;;;;;20.77;10.38;;;15.40;99.90;;;;;;6159986;23;20071;-87
2022/07/06 22:41:04;;;;;;;22.55;9.40;;;15.40;99.90;;;;;;6158526;23;20671;-88
2022/07/06 22:43:58;;;;;;;15.95;9.10;;;15.40;99.90;;;;;;6186427;23;20092;-87
2022/07/06 22:47:01;;;;;;;17.20;9.20;;;15.00;99.90;;;;;;6185067;23;20114;-88
2022/07/06 22:49:34;;;;;;;17.02;8.98;;;15.50;99.90;;;;;;6185903;23;20040;-88
2022/07/06 22:52:00;;;;;;;18.00;8.50;;;15.50;99.90;;;;;;6159604;23;20017;-88
2022/07/06 22:54:31;;;;;;;15.63;8.90;;;15.50;99.90;;;;;;6158577;23;20778;-87
2022/07/06 22:57:00;;;;;;;16.55;8.43;;;15.50;99.90;;;;;;6156728;23;20091;-87
2022/07/06 22:59:37;;;;;;;16.45;8.30;;;15.50;99.90;;;;;;6186315;23;20129;-88
2022/07/06 23:02:13;;;;;;;13.98;7.82;;;15.50;99.90;;;;;;6199497;23;20032;-87
2022/07/06 23:04:40;;;;;;;18.33;8.68;;;15.50;99.90;;;;;;6176739;23;20008;-88
2022/07/06 23:07:24;;;;;;;17.60;8.35;;;15.50;99.90;;;;;;6186081;23;20021;-88
2022/07/06 23:10:06;;;;;;;16.05;7.85;;;15.50;99.90;;;;;;6185222;23;20012;-88
2022/07/06 23:12:44;;;;;;;16.08;7.78;;;15.50;99.90;;;;;;6159196;23;20013;-88
2022/07/06 23:15:10;;;;;;;16.65;8.05;;;15.50;99.90;;;;;;6158701;23;20354;-88
2022/07/06 23:17:53;;;;;;;15.10;7.90;;;15.50;99.90;;;;;;6159378;23;20017;-88
2022/07/06 23:20:37;;;;;;;17.15;7.80;;;15.50;99.90;;;;;;6109083;23;20021;-87
2022/07/06 23:23:18;;;;;;;15.00;7.57;;;15.50;99.90;;;;;;6158349;23;20117;-88
2022/07/06 23:25:44;;;;;;;14.27;7.18;;;15.50;99.90;;;;;;6159085;23;20013;-88
2022/07/06 23:29:04;;;;;;;15.15;7.78;;;15.50;99.90;;;;;;6157703;23;20017;-88
2022/07/06 23:31:59;;;;;;;18.75;7.95;;;15.60;99.90;;;;;;6158441;23;20048;-88
2022/07/06 23:34:37;;;;;;;13.65;7.22;;;15.50;99.90;;;;;;6185498;23;20017;-88
2022/07/06 23:37:06;;;;;;;14.68;7.65;;;15.50;99.90;;;;;;6184173;23;20017;-88
2022/07/06 23:39:40;;;;;;;14.23;6.97;;;15.50;99.90;;;;;;6159504;23;20020;-88
2022/07/06 23:42:28;;;;;;;12.98;7.45;;;15.60;99.90;;;;;;6184418;23;20349;-88
2022/07/06 23:44:57;;;;;;;13.52;7.32;;;15.20;99.90;;;;;;6185405;23;20017;-88
2022/07/06 23:48:03;;;;;;;13.13;7.63;;;15.60;99.90;;;;;;6158940;23;20024;-88
2022/07/06 23:51:15;;;;;;;14.55;7.70;;;15.60;99.90;;;;;;6157524;23;20036;-88
2022/07/06 23:53:50;;;;;;;17.33;7.70;;;15.30;99.90;;;;;;6158370;23;20087;-87
